Time;durP1;ratioP1;P1;durP2;ratioP2;P2;SDS_P1;SDS_P2;PMS_P1;PMS_P2;Temp;Humidity;BMP_temperature;BMP_pressure;BME280_temperature;BME280_humidity;BME280_pressure;Samples;Min_cycle;Max_cycle;Signal;HPM_P1;HPM_P2
2022/09/20 00:00:44;;;;;;;28.85;27.20;;;;;;;15.77;60.35;102191.03;5030620;28;20120;-75
2022/09/20 00:03:10;;;;;;;31.80;29.60;;;;;;;15.75;60.04;102185.84;5040055;28;20051;-73
2022/09/20 00:05:37;;;;;;;28.15;26.65;;;;;;;15.75;60.19;102191.31;5015590;28;20067;-74
2022/09/20 00:08:04;;;;;;;29.00;27.40;;;;;;;15.74;59.93;102181.47;5032245;28;20048;-74
2022/09/20 00:10:38;;;;;;;28.83;27.23;;;;;;;15.73;60.01;102188.00;5031045;28;20033;-74
2022/09/20 00:13:05;;;;;;;28.13;26.40;;;;;;;15.73;60.08;102189.88;5040362;28;20493;-74
2022/09/20 00:15:31;;;;;;;29.88;28.38;;;;;;;15.72;59.83;102189.06;5024211;28;20034;-74
2022/09/20 00:17:57;;;;;;;30.58;28.48;;;;;;;15.71;59.84;102183.84;5012049;28;20523;-74
2022/09/20 00:20:23;;;;;;;29.45;27.27;;;;;;;15.71;60.04;102178.41;5023974;28;20041;-75
2022/09/20 00:22:49;;;;;;;30.92;29.17;;;;;;;15.69;59.83;102185.94;5029894;28;20037;-73
2022/09/20 00:25:16;;;;;;;28.70;27.10;;;;;;;15.69;59.78;102180.50;5030745;28;20033;-75
2022/09/20 00:27:41;;;;;;;28.83;27.33;;;;;;;15.68;60.01;102178.88;5018750;28;20092;-73
2022/09/20 00:30:08;;;;;;;28.58;27.08;;;;;;;15.66;59.81;102181.81;5021338;28;20539;-74
2022/09/20 00:32:33;;;;;;;29.77;28.27;;;;;;;15.66;60.00;102181.81;5018273;28;20057;-73
2022/09/20 00:35:08;;;;;;;29.58;27.98;;;;;;;15.65;60.32;102182.91;5011473;28;20097;-73
2022/09/20 00:37:34;;;;;;;28.10;26.50;;;;;;;15.64;59.94;102183.13;5026006;28;20130;-74
2022/09/20 00:40:00;;;;;;;29.40;27.55;;;;;;;15.63;59.80;102187.75;5031506;28;20458;-74
2022/09/20 00:42:27;;;;;;;29.30;27.67;;;;;;;15.62;60.05;102188.81;5038087;28;20040;-73
2022/09/20 00:44:56;;;;;;;28.80;27.02;;;;;;;15.63;59.88;102189.66;5030377;28;20124;-73
2022/09/20 00:47:28;;;;;;;28.27;26.67;;;;;;;15.61;59.67;102186.34;5029629;28;20367;-73
2022/09/20 00:50:06;;;;;;;30.90;28.65;;;;;;;15.59;60.11;102190.13;5031683;28;20033;-72
2022/09/20 00:52:33;;;;;;;29.20;27.43;;;;;;;15.58;60.12;102184.94;5045224;28;20521;-72
2022/09/20 00:54:59;;;;;;;30.23;27.85;;;;;;;15.57;59.72;102184.09;5014839;28;20359;-73
2022/09/20 00:57:25;;;;;;;29.50;27.88;;;;;;;15.57;59.71;102188.69;5027136;28;20117;-72
2022/09/20 00:59:52;;;;;;;29.30;27.67;;;;;;;15.55;59.90;102182.69;5019069;28;20040;-73
2022/09/20 01:02:23;;;;;;;28.60;26.95;;;;;;;15.55;60.10;102186.22;5016515;28;20486;-72
2022/09/20 01:04:49;;;;;;;27.77;26.15;;;;;;;15.55;59.82;102188.13;5020848;28;20038;-76
2022/09/20 01:07:18;;;;;;;28.13;26.52;;;;;;;15.53;60.13;102182.91;5012066;28;20037;-74
2022/09/20 01:09:44;;;;;;;29.65;27.95;;;;;;;15.52;60.06;102184.00;5015263;28;20033;-74
2022/09/20 01:12:13;;;;;;;27.80;26.40;;;;;;;15.52;59.84;102181.28;5014394;28;20025;-73
2022/09/20 01:14:41;;;;;;;28.75;27.15;;;;;;;15.51;59.83;102176.06;5019429;28;20112;-73
2022/09/20 01:17:08;;;;;;;27.98;26.45;;;;;;;15.50;60.00;102183.41;5016598;28;20623;-72
2022/09/20 01:19:41;;;;;;;29.73;28.00;;;;;;;15.49;59.91;102176.28;5024200;28;20448;-73
2022/09/20 01:22:33;;;;;;;30.38;28.67;;;;;;;15.48;59.85;102173.81;5026923;28;20034;-74
2022/09/20 01:25:40;;;;;;;29.38;27.75;;;;;;;15.47;59.95;102169.44;5014675;28;20041;-74
2022/09/20 01:28:05;;;;;;;29.80;27.75;;;;;;;15.44;60.03;102170.72;5030624;28;20053;-74
2022/09/20 01:30:39;;;;;;;26.65;25.05;;;;;;;15.45;59.75;102174.31;5024297;28;20030;-73
2022/09/20 01:33:18;;;;;;;28.00;26.40;;;;;;;15.43;60.05;102169.09;5010156;28;20034;-74
2022/09/20 01:35:46;;;;;;;27.50;25.52;;;;;;;15.43;59.89;102165.53;5023096;28;20034;-73
2022/09/20 01:38:56;;;;;;;27.02;25.58;;;;;;;15.42;59.89;102170.16;5014876;28;20036;-75
2022/09/20 01:41:46;;;;;;;26.88;25.27;;;;;;;15.40;60.07;102166.03;5027952;28;20037;-74
2022/09/20 01:44:27;;;;;;;26.60;24.90;;;;;;;15.39;60.18;102169.81;5030470;28;20091;-74
2022/09/20 01:47:01;;;;;;;27.63;26.02;;;;;;;15.38;60.07;102173.59;5010920;28;20073;-77
2022/09/20 01:49:33;;;;;;;28.27;26.45;;;;;;;15.38;60.28;102171.72;5011692;28;20497;-75
2022/09/20 01:52:16;;;;;;;26.52;24.70;;;;;;;15.36;59.83;102176.56;5020220;28;20389;-75
2022/09/20 01:55:07;;;;;;;26.75;25.25;;;;;;;15.35;59.89;102181.19;5037099;28;20041;-73
2022/09/20 01:57:58;;;;;;;26.95;25.35;;;;;;;15.35;59.91;102185.81;5014247;28;20064;-74
2022/09/20 02:00:45;;;;;;;27.63;25.95;;;;;;;15.34;60.13;102197.75;5029027;28;20033;-74
2022/09/20 02:03:30;;;;;;;28.48;26.35;;;;;;;15.32;60.10;102191.72;5034867;28;20065;-74
2022/09/20 02:06:14;;;;;;;27.55;25.67;;;;;;;15.32;59.96;102200.72;5022441;28;20176;-73
2022/09/20 02:09:13;;;;;;;26.70;25.17;;;;;;;15.31;60.29;102196.34;5025794;28;20033;-73
2022/09/20 02:11:41;;;;;;;27.20;25.58;;;;;;;15.29;60.12;102179.41;5015137;28;20092;-74
2022/09/20 02:14:59;;;;;;;28.45;26.75;;;;;;;15.29;60.44;102186.75;5020992;28;20124;-73
2022/09/20 02:17:42;;;;;;;27.80;25.23;;;;;;;15.28;59.87;102185.94;5002851;28;20445;-73
2022/09/20 02:20:26;;;;;;;27.52;25.73;;;;;;;15.27;59.99;102177.97;5014268;28;20034;-74
2022/09/20 02:23:15;;;;;;;26.48;24.98;;;;;;;15.26;60.50;102182.59;5025729;28;20033;-74
2022/09/20 02:25:41;;;;;;;27.38;25.80;;;;;;;15.26;60.36;102188.06;5018091;28;20064;-74
2022/09/20 02:28:29;;;;;;;27.08;25.48;;;;;;;15.25;60.25;102178.25;5022983;28;20069;-74
2022/09/20 02:31:11;;;;;;;25.63;24.20;;;;;;;15.24;60.07;102175.75;5014461;28;20092;-76
2022/09/20 02:33:36;;;;;;;25.55;24.25;;;;;;;15.25;60.07;102189.13;5025752;28;20030;-76
2022/09/20 02:36:06;;;;;;;29.05;27.02;;;;;;;15.23;60.39;102191.25;5014100;28;20030;-74
2022/09/20 02:38:32;;;;;;;26.73;25.10;;;;;;;15.23;60.14;102193.16;5023435;28;20065;-73
2022/09/20 02:41:19;;;;;;;27.42;25.73;;;;;;;15.23;60.54;102183.09;5024768;28;20485;-76
2022/09/20 02:44:07;;;;;;;26.35;24.75;;;;;;;15.23;60.37;102174.94;5023771;28;20036;-74
2022/09/20 02:46:49;;;;;;;27.58;25.85;;;;;;;15.22;60.45;102170.56;5017404;28;20025;-73
2022/09/20 02:49:20;;;;;;;26.73;25.13;;;;;;;15.22;60.26;102175.16;5013644;28;20110;-73
2022/09/20 02:51:52;;;;;;;27.73;25.60;;;;;;;15.21;60.25;102173.50;5019172;28;20032;-73
2022/09/20 02:54:20;;;;;;;26.85;25.42;;;;;;;15.21;60.51;102177.06;5031541;28;20109;-74
2022/09/20 02:57:13;;;;;;;27.20;25.55;;;;;;;15.20;60.34;102178.13;5032175;28;20034;-73
2022/09/20 03:00:11;;;;;;;26.88;25.42;;;;;;;15.20;60.61;102185.47;5032781;28;20021;-73
2022/09/20 03:02:59;;;;;;;26.90;25.20;;;;;;;15.19;60.47;102172.91;5033496;28;20084;-73
2022/09/20 03:06:01;;;;;;;27.33;25.92;;;;;;;15.19;60.43;102175.63;5013862;28;20026;-73
2022/09/20 03:08:44;;;;;;;28.10;26.58;;;;;;;15.17;60.71;102170.44;5028629;28;20441;-75
2022/09/20 03:11:34;;;;;;;26.00;24.50;;;;;;;15.17;60.46;102173.16;5023167;28;20033;-73
2022/09/20 03:14:24;;;;;;;25.85;24.30;;;;;;;15.17;60.38;102175.03;5022430;28;20053;-75
2022/09/20 03:17:08;;;;;;;27.10;25.30;;;;;;;15.15;60.60;102175.28;5032146;28;20029;-74
2022/09/20 03:20:02;;;;;;;26.60;25.00;;;;;;;15.15;60.50;102175.28;5031546;28;20117;-74
2022/09/20 03:22:52;;;;;;;26.42;25.08;;;;;;;15.14;60.60;102182.66;5032565;28;20062;-74
2022/09/20 03:25:35;;;;;;;25.83;24.33;;;;;;;15.14;60.81;102187.22;5018025;28;20507;-73
2022/09/20 03:28:48;;;;;;;28.00;26.35;;;;;;;15.13;60.63;102186.41;5035876;28;20025;-76
2022/09/20 03:31:28;;;;;;;26.30;24.70;;;;;;;15.11;60.70;102188.53;5037013;28;20425;-73
2022/09/20 03:34:06;;;;;;;26.30;24.80;;;;;;;15.12;60.69;102183.94;5030986;28;20033;-74
2022/09/20 03:36:50;;;;;;;25.73;24.02;;;;;;;15.11;60.63;102185.81;5032958;28;20634;-73
2022/09/20 03:39:37;;;;;;;26.65;24.75;;;;;;;15.10;60.49;102180.63;5012507;28;20363;-74
2022/09/20 03:42:16;;;;;;;26.98;25.48;;;;;;;15.09;60.52;102179.81;5012666;28;20445;-75
2022/09/20 03:44:48;;;;;;;26.73;25.30;;;;;;;15.09;60.72;102176.22;5028950;28;20105;-73
2022/09/20 03:47:24;;;;;;;28.17;26.35;;;;;;;15.08;60.73;102186.28;5027882;28;20026;-74
2022/09/20 03:50:05;;;;;;;25.17;23.88;;;;;;;15.09;60.37;102182.53;5031004;28;20090;-73
2022/09/20 03:52:40;;;;;;;25.90;24.45;;;;;;;15.09;60.91;102187.97;5020233;28;20041;-74
2022/09/20 03:55:18;;;;;;;26.73;25.23;;;;;;;15.07;60.27;102173.78;5012615;28;20030;-75
2022/09/20 03:58:02;;;;;;;25.80;24.40;;;;;;;15.08;60.73;102177.31;5013210;28;20108;-73
2022/09/20 04:00:57;;;;;;;25.13;23.73;;;;;;;15.07;60.71;102178.38;5025305;28;20030;-73
2022/09/20 04:03:33;;;;;;;26.67;25.08;;;;;;;15.06;60.95;102177.53;5024996;28;20143;-73
2022/09/20 04:06:04;;;;;;;25.17;23.80;;;;;;;15.07;60.55;102184.66;5028423;28;20113;-74
2022/09/20 04:09:07;;;;;;;28.88;26.83;;;;;;;15.06;60.85;102176.72;5016465;28;20474;-73
2022/09/20 04:11:49;;;;;;;26.40;24.95;;;;;;;15.05;60.82;102175.91;5033790;28;20464;-73
2022/09/20 04:14:26;;;;;;;29.65;27.63;;;;;;;15.04;60.88;102173.41;5016228;28;20463;-73
2022/09/20 04:17:04;;;;;;;27.20;25.65;;;;;;;15.03;60.73;102177.19;5012715;28;20030;-73
2022/09/20 04:19:42;;;;;;;26.92;25.23;;;;;;;15.03;60.95;102175.28;5018993;28;20025;-73
2022/09/20 04:22:08;;;;;;;25.45;23.95;;;;;;;15.03;60.73;102177.19;5039392;28;20117;-77
2022/09/20 04:24:52;;;;;;;28.27;26.33;;;;;;;15.03;60.80;102178.03;5015562;28;20113;-74
2022/09/20 04:27:40;;;;;;;26.23;24.23;;;;;;;15.02;60.60;102172.81;5025289;28;20038;-74
2022/09/20 04:30:06;;;;;;;26.63;25.23;;;;;;;15.01;60.54;102171.16;5031810;28;20037;-74
2022/09/20 04:32:38;;;;;;;26.02;24.63;;;;;;;15.00;60.73;102174.97;5031291;28;20470;-74
2022/09/20 04:38:04;;;;;;;25.60;24.20;;;;;;;14.98;60.91;102172.47;5012257;28;20092;-73
2022/09/20 04:41:04;;;;;;;25.73;24.33;;;;;;;14.98;60.98;102161.56;5020531;28;20045;-73
2022/09/20 04:43:57;;;;;;;25.58;23.85;;;;;;;14.98;60.83;102161.56;5011899;28;20029;-75
2022/09/20 04:47:00;;;;;;;28.65;26.88;;;;;;;14.97;60.71;102161.81;5010349;28;20371;-73
2022/09/20 04:49:32;;;;;;;27.25;25.73;;;;;;;14.95;60.72;102172.94;5021889;28;20038;-74
2022/09/20 04:52:23;;;;;;;27.80;26.30;;;;;;;14.94;60.52;102174.00;5049327;28;20028;-73
2022/09/20 04:55:11;;;;;;;27.13;25.42;;;;;;;14.95;60.85;102181.09;5012264;28;20061;-73
2022/09/20 04:58:01;;;;;;;26.80;25.35;;;;;;;14.93;60.71;102184.06;5012205;28;20040;-75
2022/09/20 05:00:52;;;;;;;26.67;24.98;;;;;;;14.92;60.78;102184.31;5019385;28;20017;-72
2022/09/20 05:03:40;;;;;;;27.33;25.55;;;;;;;14.91;60.49;102185.34;5011379;28;20405;-75
2022/09/20 05:06:33;;;;;;;25.83;24.33;;;;;;;14.90;60.56;102194.59;5031100;28;20044;-75
2022/09/20 05:09:36;;;;;;;25.98;24.58;;;;;;;14.90;60.75;102186.44;5016393;28;20041;-73
2022/09/20 05:12:46;;;;;;;26.10;24.15;;;;;;;14.89;60.60;102184.75;5039347;28;20041;-72
2022/09/20 05:15:35;;;;;;;27.33;25.58;;;;;;;14.88;60.73;102192.09;5028183;28;20539;-75
2022/09/20 05:18:19;;;;;;;26.08;24.65;;;;;;;14.87;60.64;102195.88;5025005;28;20048;-74
2022/09/20 05:21:22;;;;;;;30.52;28.63;;;;;;;14.86;60.91;102188.78;5018501;28;20050;-72
2022/09/20 05:24:10;;;;;;;27.77;26.15;;;;;;;14.85;60.74;102189.84;5025911;28;20029;-72
2022/09/20 05:26:58;;;;;;;27.40;25.90;;;;;;;14.85;61.02;102194.47;5025612;28;20359;-73
2022/09/20 05:29:33;;;;;;;28.17;26.58;;;;;;;14.84;60.98;102190.06;5027261;28;20038;-75
2022/09/20 05:32:07;;;;;;;25.33;23.85;;;;;;;14.84;60.82;102200.97;5030624;28;20041;-75
2022/09/20 05:34:41;;;;;;;28.48;26.75;;;;;;;14.84;60.67;102200.97;5025552;28;20034;-74
2022/09/20 05:37:27;;;;;;;27.17;25.42;;;;;;;14.84;60.68;102207.25;5028506;28;20044;-72
2022/09/20 05:40:11;;;;;;;25.33;23.48;;;;;;;14.84;60.82;102215.41;5028102;28;20030;-74
2022/09/20 05:42:47;;;;;;;26.85;25.35;;;;;;;14.83;60.62;102213.75;5026853;28;20080;-71
2022/09/20 05:45:16;;;;;;;28.15;26.35;;;;;;;14.83;60.76;102226.50;5031168;28;20040;-75
2022/09/20 05:48:00;;;;;;;27.48;25.10;;;;;;;14.82;60.69;102236.56;5027787;28;20030;-73
2022/09/20 05:50:40;;;;;;;27.30;25.70;;;;;;;14.82;60.58;102238.47;5033481;28;20037;-77
2022/09/20 05:53:34;;;;;;;26.95;25.40;;;;;;;14.81;60.72;102243.06;5029349;28;20051;-73
2022/09/20 05:56:15;;;;;;;25.25;23.95;;;;;;;14.80;60.76;102240.59;5025436;28;20068;-74
2022/09/20 05:58:59;;;;;;;28.70;27.10;;;;;;;14.80;60.57;102240.59;5029154;28;20107;-74
2022/09/20 06:01:33;;;;;;;27.35;25.63;;;;;;;14.79;60.89;102247.06;5028201;28;20036;-73
2022/09/20 06:04:38;;;;;;;25.92;24.50;;;;;;;14.78;60.91;102243.53;5028337;28;20048;-73
2022/09/20 06:07:27;;;;;;;25.15;23.75;;;;;;;14.78;60.91;102250.88;5021357;28;20124;-74
2022/09/20 06:10:12;;;;;;;26.48;25.00;;;;;;;14.78;60.62;102248.16;5034444;28;20037;-73
2022/09/20 06:13:25;;;;;;;25.70;24.15;;;;;;;14.77;61.06;102249.22;5035772;28;20600;-76
2022/09/20 06:15:59;;;;;;;24.50;23.17;;;;;;;14.76;60.76;102255.72;5049163;28;20036;-76
2022/09/20 06:18:47;;;;;;;26.10;24.60;;;;;;;14.75;61.12;102262.22;5033638;28;20134;-78
2022/09/20 06:21:18;;;;;;;26.35;24.48;;;;;;;14.74;60.98;102263.28;5014775;28;20026;-79
2022/09/20 06:23:44;;;;;;;26.88;25.38;;;;;;;14.74;61.02;102266.84;5016029;28;20030;-76
2022/09/20 06:26:28;;;;;;;26.40;24.90;;;;;;;14.74;60.86;102261.41;5054569;28;20400;-77
2022/09/20 06:28:59;;;;;;;25.17;23.77;;;;;;;14.73;60.81;102251.56;5033829;28;20030;-78
2022/09/20 06:31:25;;;;;;;26.38;24.88;;;;;;;14.73;61.01;102248.84;5033919;28;20049;-77
2022/09/20 06:33:57;;;;;;;25.98;24.60;;;;;;;14.73;61.04;102239.88;5057883;28;20124;-80
2022/09/20 06:42:28;;;;;;;26.40;24.85;;;;;;;14.71;61.08;102240.91;5013692;28;20113;-78
2022/09/20 06:44:54;;;;;;;24.80;23.23;;;;;;;14.71;60.81;102250.97;5021902;28;20091;-77
2022/09/20 06:47:22;;;;;;;27.23;25.55;;;;;;;14.70;61.16;102250.16;5018977;28;20389;-82
2022/09/20 06:49:49;;;;;;;24.55;23.05;;;;;;;14.70;60.80;102246.59;5015129;28;20026;-76
2022/09/20 06:52:16;;;;;;;27.50;25.75;;;;;;;14.70;61.15;102244.72;5013294;28;20113;-78
2022/09/20 06:54:44;;;;;;;24.73;23.25;;;;;;;14.71;60.90;102246.34;5028181;28;20040;-78
2022/09/20 06:57:14;;;;;;;25.23;23.60;;;;;;;14.71;60.95;102249.06;5022741;28;20083;-79
2022/09/20 06:59:39;;;;;;;25.80;24.30;;;;;;;14.71;60.84;102249.06;5033953;28;20108;-81
2022/09/20 07:02:05;;;;;;;24.92;23.38;;;;;;;14.72;61.13;102247.19;5026269;28;20126;-79
2022/09/20 07:04:31;;;;;;;26.42;24.67;;;;;;;14.71;60.86;102246.34;5036827;28;20062;-78
2022/09/20 07:07:01;;;;;;;26.55;25.15;;;;;;;14.71;61.12;102243.63;5012956;28;20038;-79
2022/09/20 07:09:27;;;;;;;26.58;25.10;;;;;;;14.70;60.80;102247.44;5013455;28;20033;-79
2022/09/20 07:11:54;;;;;;;25.63;24.13;;;;;;;14.71;61.11;102243.63;5014013;28;20053;-78
2022/09/20 07:14:19;;;;;;;25.65;24.02;;;;;;;14.72;60.94;102241.75;5034792;28;20136;-79
2022/09/20 07:16:45;;;;;;;26.10;24.42;;;;;;;14.73;61.14;102250.75;5031492;28;20442;-78
2022/09/20 07:19:10;;;;;;;24.73;23.23;;;;;;;14.71;61.15;102246.34;5029556;28;20091;-79
2022/09/20 07:21:35;;;;;;;27.15;25.42;;;;;;;14.72;61.30;102244.47;5014869;28;20126;-78
2022/09/20 07:24:01;;;;;;;25.20;23.65;;;;;;;14.73;61.37;102248.03;5030661;28;20467;-77
2022/09/20 07:26:29;;;;;;;24.63;23.08;;;;;;;14.73;61.24;102246.13;5018084;28;20389;-80
2022/09/20 07:28:56;;;;;;;24.85;23.45;;;;;;;14.74;61.20;102250.53;5033623;28;20034;-80
2022/09/20 07:31:23;;;;;;;26.48;24.70;;;;;;;14.74;61.30;102242.38;5012873;28;20390;-80
2022/09/20 07:33:48;;;;;;;26.52;24.90;;;;;;;14.74;61.45;102245.09;5033703;28;20121;-81
2022/09/20 07:36:15;;;;;;;25.48;23.75;;;;;;;14.75;61.37;102249.44;5031002;28;20458;-79
2022/09/20 07:38:41;;;;;;;26.70;25.20;;;;;;;14.75;61.46;102246.72;5029256;28;20025;-80
2022/09/20 07:41:09;;;;;;;25.65;23.98;;;;;;;14.75;61.36;102246.72;5020253;28;20057;-79
2022/09/20 07:43:35;;;;;;;25.92;24.40;;;;;;;14.76;61.12;102250.28;5027604;28;20454;-80
2022/09/20 07:46:01;;;;;;;24.92;23.42;;;;;;;14.77;61.42;102258.22;5030921;28;20037;-79
2022/09/20 07:48:30;;;;;;;25.48;23.88;;;;;;;14.78;61.79;102262.56;5017974;28;20470;-79
2022/09/20 07:51:01;;;;;;;26.13;23.70;;;;;;;14.79;61.69;102263.41;5012243;28;20081;-80
2022/09/20 07:53:26;;;;;;;27.45;25.05;;;;;;;14.79;61.64;102266.97;5027380;28;20114;-80
2022/09/20 07:56:00;;;;;;;25.80;24.30;;;;;;;14.79;61.77;102266.97;5030183;28;20473;-81
2022/09/20 07:58:30;;;;;;;26.67;25.13;;;;;;;14.79;61.70;102271.56;5030165;28;20021;-80
2022/09/20 08:00:58;;;;;;;25.45;23.75;;;;;;;14.80;61.89;102271.34;5031231;28;20065;-80
2022/09/20 08:03:24;;;;;;;25.35;23.55;;;;;;;14.81;61.84;102275.72;5038166;28;20056;-80
2022/09/20 08:05:50;;;;;;;24.52;23.13;;;;;;;14.82;61.90;102274.66;5027775;28;20458;-80
2022/09/20 08:08:17;;;;;;;25.02;23.75;;;;;;;14.83;61.87;102270.88;5011569;28;20349;-79
2022/09/20 08:10:44;;;;;;;25.65;24.25;;;;;;;14.83;61.74;102280.91;5019420;28;20029;-80
2022/09/20 08:13:11;;;;;;;24.10;22.88;;;;;;;14.84;61.51;102279.84;5030755;28;20033;-80
2022/09/20 08:15:37;;;;;;;25.08;23.67;;;;;;;14.84;61.72;102277.97;5027580;28;20068;-81
2022/09/20 08:18:02;;;;;;;26.67;24.85;;;;;;;14.85;61.65;102284.25;5029765;28;20481;-82
2022/09/20 08:20:28;;;;;;;26.00;24.40;;;;;;;14.86;61.77;102288.59;5011142;28;20378;-83
2022/09/20 08:22:54;;;;;;;25.55;24.02;;;;;;;14.87;61.70;102285.66;5008861;28;20033;-81
2022/09/20 08:25:20;;;;;;;25.65;24.05;;;;;;;14.88;61.76;102283.78;5009799;28;20092;-79
2022/09/20 08:27:52;;;;;;;27.88;26.08;;;;;;;14.89;61.71;102291.72;5009733;28;20474;-82
2022/09/20 08:30:17;;;;;;;26.85;25.02;;;;;;;14.90;61.80;102293.34;5011064;28;20080;-80
2022/09/20 08:32:43;;;;;;;25.80;24.30;;;;;;;14.92;61.78;102301.28;5013051;28;20061;-80
2022/09/20 08:35:09;;;;;;;27.00;24.92;;;;;;;14.93;61.77;102292.88;5012866;28;20034;-79
2022/09/20 08:37:36;;;;;;;26.40;24.90;;;;;;;14.95;61.72;102302.72;5017443;28;20152;-79
2022/09/20 08:40:03;;;;;;;26.25;24.65;;;;;;;14.95;61.69;102300.00;5027375;28;20030;-83
2022/09/20 08:42:35;;;;;;;27.92;26.13;;;;;;;14.96;61.31;102299.75;5037184;28;20082;-75
2022/09/20 08:45:15;;;;;;;25.95;24.25;;;;;;;14.96;61.47;102301.66;5012928;28;20037;-77
2022/09/20 08:48:04;;;;;;;27.10;24.95;;;;;;;14.97;61.51;102306.88;5023414;28;20034;-76
2022/09/20 08:50:30;;;;;;;27.23;25.60;;;;;;;15.00;61.86;102319.19;5028588;28;20036;-77
2022/09/20 08:52:58;;;;;;;27.52;25.58;;;;;;;15.00;61.53;102313.72;5024627;28;20386;-76
2022/09/20 08:55:33;;;;;;;29.63;27.58;;;;;;;15.00;61.46;102303.66;5028399;28;20078;-75
2022/09/20 08:57:59;;;;;;;26.63;25.00;;;;;;;15.01;61.63;102304.50;5029309;28;20391;-74
2022/09/20 09:00:32;;;;;;;27.95;25.90;;;;;;;15.01;61.40;102299.88;5032076;28;20431;-74
2022/09/20 09:03:04;;;;;;;26.35;24.75;;;;;;;15.01;61.33;102310.75;5017140;28;20478;-74
2022/09/20 09:05:42;;;;;;;25.55;23.98;;;;;;;15.03;61.54;102307.81;5022273;28;20466;-74
2022/09/20 09:08:17;;;;;;;25.70;23.98;;;;;;;15.04;61.38;102304.84;5039697;28;20062;-75
2022/09/20 09:10:51;;;;;;;26.23;24.48;;;;;;;15.05;61.24;102301.06;5009748;28;20474;-75
2022/09/20 09:13:30;;;;;;;26.00;24.52;;;;;;;15.06;61.44;102310.06;5010624;28;20034;-74
2022/09/20 09:15:59;;;;;;;24.30;22.77;;;;;;;15.06;61.45;102313.59;5034091;28;20436;-76
2022/09/20 09:18:33;;;;;;;26.45;25.02;;;;;;;15.07;61.20;102314.47;5030942;28;20385;-75
2022/09/20 09:21:03;;;;;;;27.38;25.88;;;;;;;15.08;61.21;102310.66;5028228;28;20451;-75
2022/09/20 09:23:34;;;;;;;26.65;24.90;;;;;;;15.09;61.33;102315.88;5036410;28;20047;-75
2022/09/20 09:26:03;;;;;;;26.38;24.88;;;;;;;15.12;60.91;102311.88;5009492;28;20477;-75
2022/09/20 09:28:35;;;;;;;24.90;23.55;;;;;;;15.13;61.08;102314.34;5011302;28;20044;-74
2022/09/20 09:31:21;;;;;;;25.63;24.33;;;;;;;15.15;61.02;102311.38;5037159;28;20060;-78
2022/09/20 09:33:47;;;;;;;27.58;25.98;;;;;;;15.17;61.19;102308.41;5029538;28;20033;-76
2022/09/20 09:36:16;;;;;;;26.25;24.13;;;;;;;15.17;61.42;102292.06;5031255;28;20040;-76
2022/09/20 09:38:44;;;;;;;;;;;;;;;15.20;61.24;102310.69;5030728;28;20064;-76
2022/09/20 09:41:28;;;;;;;26.52;24.80;;;;;;;15.22;60.97;102303.09;5032763;28;19918;-75
2022/09/20 09:44:24;;;;;;;26.70;25.30;;;;;;;15.25;61.19;102299.91;5011475;28;20038;-78
2022/09/20 09:46:52;;;;;;;26.85;25.45;;;;;;;15.26;61.18;102302.38;5010846;28;20061;-76
2022/09/20 09:49:56;;;;;;;25.60;24.15;;;;;;;15.31;61.01;102298.97;5010686;28;20394;-76
2022/09/20 09:52:26;;;;;;;26.63;25.17;;;;;;;15.34;60.88;102307.47;5021613;28;20045;-77
2022/09/20 09:54:58;;;;;;;26.35;24.85;;;;;;;15.38;61.07;102305.13;5006586;28;20034;-78
2022/09/20 09:58:01;;;;;;;27.20;25.60;;;;;;;15.42;60.41;102306.31;5025624;28;20041;-76
2022/09/20 10:00:30;;;;;;;26.90;25.00;;;;;;;15.44;60.54;102309.59;5039114;28;20037;-80
2022/09/20 10:03:11;;;;;;;25.80;24.40;;;;;;;15.47;60.73;102309.16;5032413;28;20029;-75
2022/09/20 10:05:55;;;;;;;26.13;24.30;;;;;;;15.50;60.50;102308.69;5048840;28;20156;-77
2022/09/20 10:08:36;;;;;;;25.90;24.40;;;;;;;15.52;60.98;102306.56;5036599;28;20032;-77
2022/09/20 10:11:11;;;;;;;27.10;25.70;;;;;;;15.55;60.95;102308.78;5017087;28;20087;-75
2022/09/20 10:14:13;;;;;;;26.48;24.90;;;;;;;15.59;60.85;102304.50;5033846;28;20032;-75
2022/09/20 10:17:00;;;;;;;27.50;25.77;;;;;;;15.63;60.89;102302.16;5031692;28;20043;-79
2022/09/20 10:19:46;;;;;;;26.55;25.15;;;;;;;15.65;60.68;102310.06;5042531;28;20038;-76
2022/09/20 10:22:18;;;;;;;29.45;27.30;;;;;;;15.68;60.43;102304.16;5033584;28;20040;-76
2022/09/20 10:24:54;;;;;;;26.90;25.52;;;;;;;15.69;60.48;102309.38;5032914;28;20072;-77
2022/09/20 10:27:31;;;;;;;27.88;26.23;;;;;;;15.72;60.71;102308.94;5033273;28;20033;-78
2022/09/20 10:30:10;;;;;;;29.35;27.70;;;;;;;15.75;60.71;102303.00;5033567;28;20064;-78
2022/09/20 10:32:42;;;;;;;;;;;;;;;15.78;60.70;102307.16;5031079;28;20134;-77
2022/09/20 10:35:20;;;;;;;26.65;25.30;;;;;;;15.80;60.73;102296.84;5024683;28;19921;-78
2022/09/20 10:38:09;;;;;;;26.90;25.27;;;;;;;15.82;60.35;102307.47;5033821;28;20076;-76
2022/09/20 10:44:13;;;;;;;27.35;25.95;;;;;;;15.86;60.69;102314.94;5047599;28;20056;-76
2022/09/20 10:47:11;;;;;;;26.73;25.42;;;;;;;15.87;60.56;102316.59;5025227;28;20030;-76
2022/09/20 10:49:41;;;;;;;;;;;;;;;15.90;60.79;102313.41;5032424;28;20120;-76
2022/09/20 10:52:47;;;;;;;27.30;25.73;;;;;;;15.90;60.72;102313.41;5023958;28;20440;-76
2022/09/20 10:55:30;;;;;;;27.55;25.75;;;;;;;15.92;60.63;102311.25;5028787;28;20030;-77
2022/09/20 10:58:04;;;;;;;30.55;28.33;;;;;;;15.95;60.73;102313.50;5023499;28;20485;-76
2022/09/20 11:00:53;;;;;;;27.05;25.67;;;;;;;15.96;60.31;102312.44;5014238;28;20084;-76
2022/09/20 11:03:41;;;;;;;27.10;25.40;;;;;;;16.00;60.41;102315.50;5016382;28;20112;-77
2022/09/20 11:06:25;;;;;;;26.58;25.17;;;;;;;16.02;60.56;102311.44;5024474;28;20129;-77
2022/09/20 11:08:55;;;;;;;29.15;27.55;;;;;;;16.05;60.37;102312.91;5023314;28;20484;-76
2022/09/20 11:11:27;;;;;;;27.95;26.40;;;;;;;16.08;60.23;102311.59;5014228;28;20034;-75
2022/09/20 11:14:05;;;;;;;30.13;28.23;;;;;;;16.10;60.32;102312.16;5028312;28;20124;-77
2022/09/20 11:16:43;;;;;;;27.98;26.58;;;;;;;16.12;59.98;102313.56;5014038;28;20026;-78
2022/09/20 11:19:25;;;;;;;28.83;27.42;;;;;;;16.14;59.94;102307.88;5027039;28;20034;-77
2022/09/20 11:22:29;;;;;;;30.88;28.83;;;;;;;16.18;59.74;102319.97;5013546;28;20478;-75
2022/09/20 11:25:01;;;;;;;29.48;27.92;;;;;;;16.18;59.59;102318.06;5007894;28;20045;-76
2022/09/20 11:27:36;;;;;;;28.92;27.20;;;;;;;16.21;59.32;102308.56;5036415;28;20043;-76
2022/09/20 11:30:09;;;;;;;31.40;29.50;;;;;;;16.23;59.12;102311.91;5015307;28;20120;-78
2022/09/20 11:32:51;;;;;;;28.83;27.23;;;;;;;16.25;59.44;102315.19;5026499;28;20482;-82
2022/09/20 11:35:28;;;;;;;27.83;26.42;;;;;;;16.28;59.33;102316.59;5036106;28;20072;-77
2022/09/20 11:38:21;;;;;;;31.25;28.85;;;;;;;16.32;58.68;102315.88;5020416;28;20109;-75
2022/09/20 11:40:52;;;;;;;29.48;27.77;;;;;;;16.35;58.81;102318.09;5028783;28;20563;-78
2022/09/20 11:43:19;;;;;;;28.20;26.80;;;;;;;16.37;58.70;102320.59;5025198;28;20042;-80
2022/09/20 11:45:51;;;;;;;28.85;27.35;;;;;;;16.38;58.74;102319.56;4995656;28;20038;-77
2022/09/20 11:48:32;;;;;;;28.83;27.33;;;;;;;16.40;58.80;102323.69;5011827;28;20115;-74
2022/09/20 11:51:22;;;;;;;30.02;28.40;;;;;;;16.42;58.82;102324.25;5019988;28;20033;-77
2022/09/20 11:54:18;;;;;;;30.00;28.45;;;;;;;16.44;58.49;102326.75;5030968;28;20489;-77
2022/09/20 11:56:53;;;;;;;29.90;28.08;;;;;;;16.46;58.68;102327.34;5030736;28;20044;-79
2022/09/20 11:59:39;;;;;;;29.85;28.30;;;;;;;16.47;58.58;102331.72;5021469;28;20485;-78
2022/09/20 12:02:29;;;;;;;29.70;27.90;;;;;;;16.50;58.42;102333.94;5027665;28;20060;-78
2022/09/20 12:04:55;;;;;;;29.77;27.92;;;;;;;16.52;58.57;102330.97;5037581;28;20417;-79
2022/09/20 12:07:23;;;;;;;30.25;28.27;;;;;;;16.54;58.47;102329.66;5025394;28;20049;-77